Oakland, CA (94601)

7:15 PM PDT on August 27, 2016 (GMT -0700)
ALLENDALE | | Change Station

Elev 141 ft 37.79 °N, 122.20 °W | Updated 13 minutes ago

Partly Cloudy
Partly Cloudy
64.8 °F
Feels Like 64.8 °F
N
2.7
Wind Variable Wind from NNE

Today
High -- | Low -- °F
--% Chance of Precip.
Yesterday
High -- | Low -- °F
Precip. -- in
Pressure 29.99 in
Visibility 10.0 miles
Clouds Few 1800 ft
Dew Point 54 °F
Humidity 69%
Rainfall 0.00 in
Snow Depth Not available.
6:35 AM 7:44 PM
Waning Crescent, 19% visible
METAR KOAK 280153Z 28013KT 10SM FEW018 19/13 A2999 RMK AO2 SLP153 T01940128
Pressure 29.99 in
Visibility 10.0 miles
Clouds Few 1800 ft
Dew Point 54 °F
Humidity 69%
Rainfall 0.00 in
Snow Depth Not available.
6:35 AM 7:44 PM
Waning Crescent, 19% visible
METAR KOAK 280153Z 28013KT 10SM FEW018 19/13 A2999 RMK AO2 SLP153 T01940128

10-Day Weather Forecast

Almanac

Astronomy

Aug. 27, 2016 Rise Set
Actual Time
Civil Twilight
Nautical Twilight
Astronomical Twilight
Moon
Length of Visible Light
Length of Day
Tomorrow will be .
, % of the Moon is Illuminated

Today's Extremes

State Highs State Lows

Community

WunderPhotos

Upload Photos

1,935,493 photos uploaded!

WunderBlog® & News

Nearby

Air Quality

  Air Quality AQ Index Pollutant
Not available.

Snow Depth

Station Depth Elevation

Earthquake Activity

City Distance Mag. Time & Date
Minimum magnitude displayed is 2.5.

Coastal Water Temperatures

Place Temperature

Stations

Nearby Weather Stations

Station Location Temp. Windchill Dew Point Humidity Wind Precip. Elev Updated Type
                   

Watches & Warnings

There are currently no watches in effect.